Terminal Aerodrome Forecast
Issued by NWS

Home | Current Version | Previous Version | Text Only | Print | Product List | Glossary On
Versions: 1 2 3 4 5 6 7 8 9 10 11 12 13 14 15 16 17 18 19 20 21 22 23 24 25 26 27 28
000
FTUS45 KVEF 230255 AAA
TAFLAS
TAF AMD
KLAS 230255Z 2303/2324 17008KT P6SM VCSH SCT030 BKN050
     FM230500 18012G20KT P6SM -RA SCT015 OVC030
     FM230900 19024G34KT P6SM VCSH SCT020 OVC040
     FM231400 20025G35KT P6SM VCSH SCT040 BKN060
     FM231800 22025G35KT P6SM SCT050 BKN080=

USA.gov is the U.S. government's official web portal to all federal, state and local government web resources and services.